createdAt,value
2017-11-14T00:06:02.815Z,1011.63
2017-11-14T00:15:38.647Z,1011.63
2017-11-14T00:25:14.945Z,1011.63
2017-11-14T00:34:50.909Z,1012.68
2017-11-14T00:44:26.212Z,1012.68
2017-11-14T00:54:03.177Z,1012.68
2017-11-14T01:03:39.594Z,1012.68
2017-11-14T01:13:16.014Z,1012.68
2017-11-14T01:22:52.253Z,1013.73
2017-11-14T01:32:28.311Z,1013.73
2017-11-14T01:42:03.939Z,1013.73
2017-11-14T01:51:40.836Z,1013.73
2017-11-14T02:01:16.226Z,1013.73
2017-11-14T02:10:52.758Z,1013.73
2017-11-14T02:20:28.569Z,1013.73
2017-11-14T02:30:04.776Z,1013.73
2017-11-14T02:39:40.541Z,1013.73
2017-11-14T02:49:17.457Z,1013.73
2017-11-14T02:58:53.106Z,1013.73
2017-11-14T03:08:28.966Z,1013.73
2017-11-14T03:18:05.611Z,1014.77
2017-11-14T03:27:40.709Z,1014.77
2017-11-14T03:37:15.777Z,1014.77
2017-11-14T03:46:52.162Z,1014.77
2017-11-14T03:56:29.162Z,1014.77
2017-11-14T04:06:04.308Z,1015.82
2017-11-14T04:15:39.719Z,1015.82
2017-11-14T04:25:15.417Z,1015.82
2017-11-14T04:34:50.524Z,1015.82
2017-11-14T04:44:27.348Z,1015.82
2017-11-14T04:54:03.542Z,1015.82
2017-11-14T05:03:40.165Z,1015.82
2017-11-14T05:13:15.902Z,1015.82
2017-11-14T05:22:53.301Z,1016.86
2017-11-14T05:32:29.228Z,1016.86
2017-11-14T05:42:05.187Z,1016.86
2017-11-14T05:51:42.174Z,1016.86
2017-11-14T06:01:18.648Z,1016.86
2017-11-14T06:10:55.922Z,1016.86
2017-11-14T06:20:32.111Z,1017.91
2017-11-14T06:30:09.248Z,1017.91
2017-11-14T06:39:46.341Z,1017.91
2017-11-14T06:49:22.657Z,1017.91
2017-11-14T06:58:58.547Z,1017.91
2017-11-14T07:08:34.376Z,1017.91
2017-11-14T07:18:11.211Z,1018.96
2017-11-14T07:27:46.981Z,1018.96
2017-11-14T07:37:22.686Z,1018.96
2017-11-14T07:46:59.256Z,1017.91
2017-11-14T07:56:36.206Z,1018.96
2017-11-14T08:06:13.587Z,1017.91
2017-11-14T08:15:50.760Z,1017.91
2017-11-14T08:25:27.645Z,1017.91
2017-11-14T08:35:04.671Z,1017.91
2017-11-14T08:44:41.027Z,1017.91
2017-11-14T08:54:18.726Z,1017.91
2017-11-14T09:03:55.488Z,1017.91
2017-11-14T09:13:31.944Z,1017.91
2017-11-14T09:23:08.742Z,1017.91
2017-11-14T09:32:45.576Z,1017.91
2017-11-14T09:42:22.527Z,1017.91
2017-11-14T09:51:59.059Z,1017.91
2017-11-14T10:01:35.032Z,1017.91
2017-11-14T10:11:11.266Z,1017.91
2017-11-14T10:20:48.083Z,1017.91
2017-11-14T10:30:25.731Z,1017.91
2017-11-14T10:40:02.270Z,1017.91
2017-11-14T10:49:38.371Z,1017.91
2017-11-14T10:59:14.479Z,1017.91
2017-11-14T11:08:50.990Z,1017.91
2017-11-14T11:18:26.889Z,1017.91
2017-11-14T11:28:03.248Z,1017.91
2017-11-14T11:37:39.741Z,1017.91
2017-11-14T11:47:16.156Z,1017.91
2017-11-14T11:56:52.043Z,1017.91
2017-11-14T12:06:28.260Z,1017.91
2017-11-14T12:16:04.677Z,1017.91
2017-11-14T12:25:40.870Z,1017.91
2017-11-14T12:35:17.030Z,1017.91
2017-11-14T12:44:57.245Z,1017.91
2017-11-14T12:54:28.208Z,1017.91
2017-11-14T13:04:03.375Z,1017.91
2017-11-14T13:13:40.995Z,1017.91
2017-11-14T13:23:18.907Z,1017.91
2017-11-14T13:32:55.613Z,1017.91
2017-11-14T13:42:30.505Z,1017.91
2017-11-14T13:52:05.267Z,1017.91
2017-11-14T14:01:39.495Z,1018.96
2017-11-14T14:11:12.527Z,1018.96
2017-11-14T14:20:48.397Z,1018.96
2017-11-14T14:30:23.940Z,1018.96
2017-11-14T14:39:59.208Z,1018.96
2017-11-14T14:49:34.067Z,1020.00
2017-11-14T14:59:10.194Z,1020.00
2017-11-14T15:08:46.430Z,1020.00
2017-11-14T15:18:21.614Z,1020.00
2017-11-14T15:27:56.679Z,1021.05
2017-11-14T15:37:32.134Z,1021.05
2017-11-14T15:47:06.621Z,1021.05
2017-11-14T15:56:45.162Z,1021.05
2017-11-14T16:06:14.130Z,1021.05
2017-11-14T16:15:48.949Z,1021.05
2017-11-14T16:25:24.726Z,1021.05
2017-11-14T16:35:01.123Z,1021.05
2017-11-14T16:44:37.309Z,1021.05
2017-11-14T16:54:12.537Z,1021.05
2017-11-14T17:03:48.698Z,1021.05
2017-11-14T17:13:24.228Z,1022.10
2017-11-14T17:23:00.117Z,1022.10
2017-11-14T17:32:35.619Z,1022.10
2017-11-14T17:42:13.183Z,1021.05
2017-11-14T17:51:49.232Z,1022.10
2017-11-14T18:01:24.483Z,1022.10
2017-11-14T18:10:59.921Z,1022.10
2017-11-14T18:20:35.614Z,1021.05
2017-11-14T18:30:13.507Z,1021.05
2017-11-14T18:39:51.469Z,1022.10
2017-11-14T18:49:27.160Z,1022.10
2017-11-14T18:59:01.689Z,1022.10
2017-11-14T19:08:37.452Z,1022.10
2017-11-14T19:18:13.747Z,1022.10
2017-11-14T19:27:49.397Z,1022.10
2017-11-14T19:37:28.842Z,1022.10
2017-11-14T19:46:58.404Z,1022.10
2017-11-14T19:56:33.790Z,1022.10
2017-11-14T20:06:09.561Z,1023.14
2017-11-14T20:15:44.805Z,1023.14
2017-11-14T20:25:21.975Z,1023.14
2017-11-14T20:34:57.067Z,1023.14
2017-11-14T20:44:33.261Z,1023.14
2017-11-14T20:54:09.144Z,1023.14
2017-11-14T21:03:45.480Z,1023.14
2017-11-14T21:13:21.411Z,1023.14
2017-11-14T21:22:57.288Z,1023.14
2017-11-14T21:32:33.473Z,1023.14
2017-11-14T21:42:09.782Z,1023.14
2017-11-14T21:51:45.979Z,1023.14
2017-11-14T22:01:22.235Z,1023.14
2017-11-14T22:10:58.292Z,1023.14
2017-11-14T22:20:34.181Z,1023.14
2017-11-14T22:30:09.322Z,1023.14
2017-11-14T22:39:46.103Z,1023.14
2017-11-14T22:49:22.094Z,1023.14
2017-11-14T22:58:57.498Z,1023.14
2017-11-14T23:08:34.697Z,1023.14
2017-11-14T23:18:08.884Z,1023.14
2017-11-14T23:27:51.090Z,1023.14
2017-11-14T23:48:08.437Z,1023.14
2017-11-14T23:57:44.104Z,1023.14
